Time;durP1;ratioP1;P1;durP2;ratioP2;P2;SDS_P1;SDS_P2;PMS_P1;PMS_P2;Temp;Humidity;BMP_temperature;BMP_pressure;BME280_temperature;BME280_humidity;BME280_pressure;Samples;Min_cycle;Max_cycle;Signal;HPM_P1;HPM_P2
2022/06/24 00:02:00;;;;;;;;;;;16.60;99.90;;;;;;5055235;28;19916;-70
2022/06/24 00:04:28;;;;;;;;;;;16.50;99.90;;;;;;5086043;28;19947;-70
2022/06/24 00:06:56;;;;;;;;;;;16.50;99.90;;;;;;5053946;28;19916;-70
2022/06/24 00:09:29;;;;;;;;;;;16.50;99.90;;;;;;5054972;28;19959;-70
2022/06/24 00:12:00;;;;;;;;;;;16.40;99.90;;;;;;5086399;28;19923;-70
2022/06/24 00:14:27;;;;;;;;;;;16.40;99.90;;;;;;5085940;28;19917;-70
2022/06/24 00:16:55;;;;;;;;;;;16.30;99.90;;;;;;5054514;28;19928;-70
2022/06/24 00:19:25;;;;;;;;;;;16.30;99.90;;;;;;5054239;28;20275;-70
2022/06/24 00:21:58;;;;;;;;;;;16.30;99.90;;;;;;5054090;28;19917;-70
2022/06/24 00:24:25;;;;;;;;;;;16.30;99.90;;;;;;5086733;28;19920;-69
2022/06/24 00:26:52;;;;;;;;;;;16.20;99.90;;;;;;5053823;28;20378;-69
2022/06/24 00:29:19;;;;;;;;;;;16.20;99.90;;;;;;5053619;28;19917;-70
2022/06/24 00:32:04;;;;;;;;;;;16.20;99.90;;;;;;5054039;28;19923;-69
2022/06/24 00:34:31;;;;;;;;;;;16.20;99.90;;;;;;5052800;28;19923;-69
2022/06/24 00:36:59;;;;;;;;;;;16.20;99.90;;;;;;5086551;28;19924;-69
2022/06/24 00:39:33;;;;;;;;;;;16.20;99.90;;;;;;5086515;28;19917;-70
2022/06/24 00:42:01;;;;;;;;;;;16.20;99.90;;;;;;5085827;28;19916;-70
2022/06/24 00:44:31;;;;;;;;;;;16.10;99.90;;;;;;5085889;28;19917;-69
2022/06/24 00:46:58;;;;;;;;;;;16.10;99.90;;;;;;5085961;28;19923;-69
2022/06/24 00:49:26;;;;;;;;;;;16.10;99.90;;;;;;5053758;28;19917;-69
2022/06/24 00:51:52;;;;;;;;;;;16.10;99.90;;;;;;5085581;28;19917;-69
2022/06/24 00:54:20;;;;;;;;;;;16.00;99.90;;;;;;5086738;28;19939;-69
2022/06/24 00:56:47;;;;;;;;;;;16.00;99.90;;;;;;5087406;28;19923;-69
2022/06/24 00:59:15;;;;;;;;;;;16.00;99.90;;;;;;5056760;28;19920;-69
2022/06/24 01:01:42;;;;;;;;;;;16.00;99.90;;;;;;5090092;28;20360;-69
2022/06/24 01:04:10;;;;;;;;;;;15.90;99.90;;;;;;5058275;28;19920;-69
2022/06/24 01:06:37;;;;;;;;;;;16.00;99.90;;;;;;5057530;28;19971;-69
2022/06/24 01:09:04;;;;;;;;;;;15.90;99.90;;;;;;5058584;28;20279;-69
2022/06/24 01:11:31;;;;;;;;;;;15.90;99.90;;;;;;5089952;28;19921;-69
2022/06/24 01:13:57;;;;;;;;;;;15.90;99.90;;;;;;5057704;28;19916;-69
2022/06/24 01:16:24;;;;;;;;;;;15.90;99.90;;;;;;5056420;28;19927;-69
2022/06/24 01:18:52;;;;;;;;;;;16.00;99.90;;;;;;5057629;28;20315;-69
2022/06/24 01:21:37;;;;;;;;;;;16.00;99.90;;;;;;5090565;28;19917;-69
2022/06/24 01:24:06;;;;;;;;;;;16.00;99.90;;;;;;5057419;28;20375;-69
2022/06/24 01:26:40;;;;;;;;;;;16.00;99.90;;;;;;5057439;28;19923;-69
2022/06/24 01:29:14;;;;;;;;;;;16.00;99.90;;;;;;5056876;28;19916;-69
2022/06/24 01:31:41;;;;;;;;;;;16.10;99.90;;;;;;5089693;28;19923;-69
2022/06/24 01:34:11;;;;;;;;;;;16.10;99.90;;;;;;5056954;28;19924;-69
2022/06/24 01:36:38;;;;;;;;;;;16.10;99.90;;;;;;5057588;28;19923;-69
2022/06/24 01:39:05;;;;;;;;;;;16.20;99.90;;;;;;5057227;28;20280;-69
2022/06/24 01:41:32;;;;;;;;;;;16.20;99.90;;;;;;5057634;28;20359;-69
2022/06/24 01:43:59;;;;;;;;;;;16.20;99.90;;;;;;5057060;28;19917;-69
2022/06/24 01:46:25;;;;;;;;;;;16.30;99.90;;;;;;5057524;28;19917;-69
2022/06/24 01:48:52;;;;;;;;;;;16.30;99.90;;;;;;5056969;28;19916;-68
2022/06/24 01:51:19;;;;;;;;;;;16.30;99.90;;;;;;5057263;28;19917;-69
2022/06/24 01:53:46;;;;;;;;;;;16.40;99.90;;;;;;5090024;28;19971;-69
2022/06/24 01:56:13;;;;;;;;;;;16.40;99.90;;;;;;5056748;28;19917;-69
2022/06/24 01:58:40;;;;;;;;;;;16.40;99.90;;;;;;5088988;28;19917;-69
2022/06/24 02:01:06;;;;;;;;;;;16.40;99.90;;;;;;5057358;28;19921;-69
2022/06/24 02:03:38;;;;;;;;;;;16.40;99.90;;;;;;5056451;28;19917;-69
2022/06/24 02:06:06;;;;;;;;;;;16.40;99.90;;;;;;5056553;28;19917;-69
2022/06/24 02:08:33;;;;;;;;;;;16.50;99.90;;;;;;5055856;28;20012;-69
2022/06/24 02:13:46;;;;;;;;;;;16.50;99.90;;;;;;5084648;28;19921;-69
2022/06/24 02:16:12;;;;;;;;;;;16.50;99.90;;;;;;5057299;28;19917;-69
2022/06/24 02:18:39;;;;;;;;;;;16.60;99.90;;;;;;5056130;28;20279;-69
2022/06/24 02:21:06;;;;;;;;;;;16.60;99.90;;;;;;5056140;28;19923;-69
2022/06/24 02:23:33;;;;;;;;;;;16.60;99.90;;;;;;5088386;28;19923;-69
2022/06/24 02:26:00;;;;;;;;;;;16.60;99.90;;;;;;5056355;28;19916;-69
2022/06/24 02:28:26;;;;;;;;;;;16.60;99.90;;;;;;5056039;28;19923;-69
2022/06/24 02:30:54;;;;;;;;;;;16.60;99.90;;;;;;5055959;28;19924;-69
2022/06/24 02:33:21;;;;;;;;;;;16.60;99.90;;;;;;5088001;28;19916;-69
2022/06/24 02:35:47;;;;;;;;;;;16.60;99.90;;;;;;5055840;28;20348;-68
2022/06/24 02:38:14;;;;;;;;;;;16.60;99.90;;;;;;5088787;28;19920;-68
2022/06/24 02:40:51;;;;;;;;;;;16.50;99.90;;;;;;5056298;28;19923;-69
2022/06/24 02:43:19;;;;;;;;;;;16.50;99.90;;;;;;5056836;28;19939;-69
2022/06/24 02:45:50;;;;;;;;;;;16.50;99.90;;;;;;5088955;28;20260;-69
2022/06/24 02:48:17;;;;;;;;;;;16.40;99.90;;;;;;5087647;28;19923;-68
2022/06/24 02:50:45;;;;;;;;;;;16.40;99.90;;;;;;5087617;28;19917;-68
2022/06/24 02:53:12;;;;;;;;;;;16.40;99.90;;;;;;5056551;28;19964;-69
2022/06/24 02:55:39;;;;;;;;;;;16.30;99.90;;;;;;5056712;28;19917;-69
2022/06/24 02:58:05;;;;;;;;;;;16.30;99.90;;;;;;5056248;28;19917;-69
2022/06/24 03:00:32;;;;;;;;;;;16.30;99.90;;;;;;5055608;28;19916;-69
2022/06/24 03:02:59;;;;;;;;;;;16.20;99.90;;;;;;5055602;28;19916;-69
2022/06/24 03:05:26;;;;;;;;;;;16.20;99.90;;;;;;5087762;28;20352;-69
2022/06/24 03:07:53;;;;;;;;;;;16.20;99.90;;;;;;5056287;28;19924;-69
2022/06/24 03:10:20;;;;;;;;;;;16.10;99.90;;;;;;5055068;28;19917;-69
2022/06/24 03:12:47;;;;;;;;;;;16.10;99.90;;;;;;5055091;28;19916;-69
2022/06/24 03:15:14;;;;;;;;;;;16.00;99.90;;;;;;5087525;28;20250;-69
2022/06/24 03:17:40;;;;;;;;;;;16.00;99.90;;;;;;5055309;28;19917;-69
2022/06/24 03:20:07;;;;;;;;;;;16.00;99.90;;;;;;5054893;28;20415;-69
2022/06/24 03:22:34;;;;;;;;;;;15.90;99.90;;;;;;5054884;28;20360;-69
2022/06/24 03:25:01;;;;;;;;;;;15.90;99.90;;;;;;5054874;28;19920;-69
2022/06/24 03:27:28;;;;;;;;;;;15.80;99.90;;;;;;5054819;28;19916;-69
2022/06/24 03:29:55;;;;;;;;;;;15.80;99.90;;;;;;5086834;28;19924;-69
2022/06/24 03:32:22;;;;;;;;;;;15.80;99.90;;;;;;5054734;28;19926;-68
2022/06/24 03:34:49;;;;;;;;;;;15.70;99.90;;;;;;5054878;28;19927;-68
2022/06/24 03:37:15;;;;;;;;;;;15.70;99.90;;;;;;5055696;28;19924;-69
2022/06/24 03:39:42;;;;;;;;;;;15.60;99.90;;;;;;5054911;28;20345;-69
2022/06/24 03:42:09;;;;;;;;;;;15.60;99.90;;;;;;5087031;28;19923;-69
2022/06/24 03:44:36;;;;;;;;;;;15.60;99.90;;;;;;5054081;28;19923;-69
2022/06/24 03:47:08;;;;;;;;;;;15.60;99.90;;;;;;5054582;28;19917;-68
2022/06/24 03:49:35;;;;;;;;;;;15.50;99.90;;;;;;5054468;28;20360;-69
2022/06/24 03:52:02;;;;;;;;;;;15.50;99.90;;;;;;5053782;28;19917;-69
2022/06/24 03:54:29;;;;;;;;;;;15.50;99.90;;;;;;5086678;28;19931;-69
2022/06/24 03:56:56;;;;;;;;;;;15.40;99.90;;;;;;5054643;28;19923;-69
2022/06/24 03:59:23;;;;;;;;;;;15.40;99.90;;;;;;5054442;28;19917;-69
2022/06/24 04:01:49;;;;;;;;;;;15.40;99.90;;;;;;5054270;28;20348;-69
2022/06/24 04:04:16;;;;;;;;;;;15.40;99.90;;;;;;5054202;28;19924;-68
2022/06/24 04:06:43;;;;;;;;;;;15.40;99.90;;;;;;5086116;28;19916;-69
2022/06/24 04:09:10;;;;;;;;;;;15.40;99.90;;;;;;5054768;28;19924;-68
2022/06/24 04:11:37;;;;;;;;;;;15.40;99.90;;;;;;5055119;28;20237;-69
2022/06/24 04:14:03;;;;;;;;;;;15.40;99.90;;;;;;5054891;28;19916;-69
2022/06/24 04:16:30;;;;;;;;;;;15.40;99.90;;;;;;5054509;28;20348;-69
2022/06/24 04:18:57;;;;;;;;;;;15.30;99.90;;;;;;5053929;28;19916;-69
2022/06/24 04:21:25;;;;;;;;;;;15.30;99.90;;;;;;5086149;28;19917;-69
2022/06/24 04:23:51;;;;;;;;;;;15.30;99.90;;;;;;5086190;28;19939;-69
2022/06/24 04:26:18;;;;;;;;;;;15.20;99.90;;;;;;5053861;28;19927;-69
2022/06/24 04:28:48;;;;;;;;;;;15.20;99.90;;;;;;5054377;28;20299;-69
2022/06/24 04:31:15;;;;;;;;;;;15.20;99.90;;;;;;5053300;28;20400;-68
2022/06/24 04:33:42;;;;;;;;;;;15.20;99.90;;;;;;5054315;28;19917;-69
2022/06/24 04:36:12;;;;;;;;;;;15.20;99.90;;;;;;5054769;28;19916;-69
2022/06/24 04:38:39;;;;;;;;;;;15.20;99.90;;;;;;5054246;28;19924;-69
2022/06/24 04:41:12;;;;;;;;;;;15.20;99.90;;;;;;5054504;28;19917;-69
2022/06/24 04:43:39;;;;;;;;;;;15.30;99.90;;;;;;5053550;28;19917;-69
2022/06/24 04:46:05;;;;;;;;;;;15.30;99.90;;;;;;5085645;28;19921;-69
2022/06/24 04:48:33;;;;;;;;;;;15.30;99.90;;;;;;5085504;28;19917;-69
2022/06/24 04:51:00;;;;;;;;;;;15.40;99.90;;;;;;5053864;28;19917;-69
2022/06/24 04:53:27;;;;;;;;;;;15.40;99.90;;;;;;5054593;28;19923;-69
2022/06/24 04:55:54;;;;;;;;;;;15.40;99.90;;;;;;5086074;28;19916;-69
2022/06/24 04:58:20;;;;;;;;;;;15.40;99.90;;;;;;5053438;28;19923;-69
2022/06/24 05:00:47;;;;;;;;;;;15.40;99.90;;;;;;5053732;28;20015;-69
2022/06/24 05:03:14;;;;;;;;;;;15.50;99.90;;;;;;5054484;28;19927;-69
2022/06/24 05:05:41;;;;;;;;;;;15.50;99.90;;;;;;5054302;28;19916;-68
2022/06/24 05:08:08;;;;;;;;;;;15.60;99.90;;;;;;5053372;28;19917;-69
2022/06/24 05:10:34;;;;;;;;;;;15.60;99.90;;;;;;5069662;28;19923;-69
2022/06/24 05:13:01;;;;;;;;;;;15.70;99.90;;;;;;5085464;28;19923;-69
2022/06/24 05:15:28;;;;;;;;;;;15.70;99.90;;;;;;5053885;28;19931;-69
2022/06/24 05:17:55;;;;;;;;;;;15.80;99.90;;;;;;5053328;28;19923;-69
2022/06/24 05:20:22;;;;;;;;;;;15.80;99.90;;;;;;5053180;28;20379;-69
2022/06/24 05:22:49;;;;;;;;;;;15.90;99.90;;;;;;5053571;28;20299;-68
2022/06/24 05:25:16;;;;;;;;;;;16.10;99.90;;;;;;5085584;28;19920;-69
2022/06/24 05:27:43;;;;;;;;;;;16.30;99.90;;;;;;5053818;28;19917;-69
2022/06/24 05:30:10;;;;;;;;;;;16.40;99.90;;;;;;5053453;28;19917;-69
2022/06/24 05:32:37;;;;;;;;;;;16.50;99.90;;;;;;5086283;28;19921;-68
2022/06/24 05:35:10;;;;;;;;;;;16.50;99.90;;;;;;5084131;28;20236;-69
2022/06/24 05:37:38;;;;;;;;;;;16.50;99.90;;;;;;5053386;28;20367;-69
2022/06/24 05:40:06;;;;;;;;;;;16.60;99.90;;;;;;5053902;28;19935;-69
2022/06/24 05:42:33;;;;;;;;;;;16.90;99.90;;;;;;5085165;28;19916;-68
2022/06/24 05:45:00;;;;;;;;;;;17.20;99.90;;;;;;5056224;28;20426;-69
2022/06/24 05:47:27;;;;;;;;;;;17.60;99.90;;;;;;5089357;28;19920;-69
2022/06/24 05:49:53;;;;;;;;;;;17.60;99.90;;;;;;5056691;28;19916;-69
2022/06/24 05:55:02;;;;;;;;;;;17.70;99.90;;;;;;5055494;28;20280;-69
2022/06/24 05:55:07;;;;;;;;;;;17.90;99.90;;;;;;5057723;28;20356;-69
2022/06/24 05:57:34;;;;;;;;;;;18.10;99.90;;;;;;5056851;28;19916;-68
2022/06/24 06:00:01;;;;;;;;;;;18.20;99.90;;;;;;5057324;28;19917;-69
2022/06/24 06:02:27;;;;;;;;;;;18.40;99.90;;;;;;5056823;28;19924;-69
2022/06/24 06:04:55;;;;;;;;;;;18.40;99.90;;;;;;5056631;28;20015;-69
2022/06/24 06:07:23;;;;;;;;;;;18.30;99.90;;;;;;5056408;28;19917;-69
2022/06/24 06:09:50;;;;;;;;;;;18.40;99.90;;;;;;5056563;28;20272;-69
2022/06/24 06:12:16;;;;;;;;;;;18.40;99.90;;;;;;5056296;28;19921;-69
2022/06/24 06:14:44;;;;;;;;;;;18.50;99.90;;;;;;5056283;28;19917;-69
2022/06/24 06:17:11;;;;;;;;;;;18.70;99.90;;;;;;5056482;28;20370;-69
2022/06/24 06:19:38;;;;;;;;;;;18.80;99.90;;;;;;5056480;28;19933;-66
2022/06/24 06:22:05;;;;;;;;;;;18.90;99.90;;;;;;5057333;28;19916;-68
2022/06/24 06:24:32;;;;;;;;;;;19.00;99.90;;;;;;5056847;28;19924;-63
2022/06/24 06:26:59;;;;;;;;;;;19.10;99.90;;;;;;5056251;28;19917;-64
2022/06/24 06:29:26;;;;;;;;;;;19.10;99.90;;;;;;5055055;28;19916;-68
2022/06/24 06:31:52;;;;;;;;;;;19.30;99.90;;;;;;5055848;28;20248;-64
2022/06/24 06:34:20;;;;;;;;;;;19.30;99.90;;;;;;5055774;28;19916;-64
2022/06/24 06:36:47;;;;;;;;;;;19.40;99.90;;;;;;5056025;28;19947;-64
2022/06/24 06:39:13;;;;;;;;;;;19.50;99.90;;;;;;5089013;28;19926;-64
2022/06/24 06:41:41;;;;;;;;;;;19.60;99.90;;;;;;5088709;28;20011;-63
2022/06/24 06:44:08;;;;;;;;;;;19.70;99.90;;;;;;5055650;28;19920;-69
2022/06/24 06:46:35;;;;;;;;;;;19.80;99.90;;;;;;5056450;28;20252;-70
2022/06/24 06:49:02;;;;;;;;;;;19.80;99.90;;;;;;5055561;28;19916;-70
2022/06/24 06:51:28;;;;;;;;;;;19.80;99.90;;;;;;5056572;28;20359;-71
2022/06/24 06:53:55;;;;;;;;;;;19.90;99.90;;;;;;5056272;28;19939;-71
2022/06/24 06:56:22;;;;;;;;;;;19.90;99.90;;;;;;5055994;28;19916;-71
2022/06/24 06:58:49;;;;;;;;;;;19.90;99.90;;;;;;5055767;28;19916;-70
2022/06/24 07:01:16;;;;;;;;;;;20.00;99.90;;;;;;5087785;28;20379;-70
2022/06/24 07:03:43;;;;;;;;;;;20.00;99.90;;;;;;5055110;28;20011;-68
2022/06/24 07:06:09;;;;;;;;;;;20.00;99.90;;;;;;5056438;28;19924;-69
2022/06/24 07:08:36;;;;;;;;;;;20.20;99.90;;;;;;5087437;28;20344;-69
2022/06/24 07:11:09;;;;;;;;;;;20.20;99.90;;;;;;5085977;28;19931;-74
2022/06/24 07:13:36;;;;;;;;;;;20.20;99.90;;;;;;5055571;28;20293;-69
2022/06/24 07:16:07;;;;;;;;;;;20.10;99.90;;;;;;5055147;28;19958;-70
2022/06/24 07:18:34;;;;;;;;;;;20.10;99.90;;;;;;5055938;28;20268;-74
2022/06/24 07:21:01;;;;;;;;;;;20.10;99.90;;;;;;5055026;28;19917;-69
2022/06/24 07:23:27;;;;;;;;;;;20.10;99.90;;;;;;5054410;28;19920;-71
2022/06/24 07:25:55;;;;;;;;;;;20.10;99.90;;;;;;5086925;28;19917;-70
2022/06/24 07:28:22;;;;;;;;;;;20.10;99.90;;;;;;5054879;28;20084;-65
2022/06/24 07:30:49;;;;;;;;;;;20.20;99.90;;;;;;5054799;28;19924;-66
2022/06/24 07:33:15;;;;;;;;;;;20.20;99.90;;;;;;5054839;28;19932;-66
2022/06/24 07:35:43;;;;;;;;;;;20.30;99.90;;;;;;5055110;28;20267;-65
2022/06/24 07:38:18;;;;;;;;;;;20.40;99.90;;;;;;5054738;28;19970;-66
2022/06/24 07:40:45;;;;;;;;;;;20.50;99.90;;;;;;5054846;28;19917;-65
2022/06/24 07:43:12;;;;;;;;;;;20.50;99.90;;;;;;5055075;28;19916;-65
2022/06/24 07:45:39;;;;;;;;;;;20.60;99.90;;;;;;5087578;28;19916;-65
2022/06/24 07:48:06;;;;;;;;;;;20.60;99.90;;;;;;5054651;28;19962;-67
2022/06/24 07:50:32;;;;;;;;;;;20.70;99.90;;;;;;5054689;28;19946;-64
2022/06/24 07:52:59;;;;;;;;;;;20.80;99.90;;;;;;5054710;28;19917;-74
2022/06/24 07:58:11;;;;;;;;;;;21.00;99.90;;;;;;5054523;28;19917;-81
2022/06/24 08:00:38;;;;;;;;;;;21.00;99.90;;;;;;5054726;28;19920;-76
2022/06/24 08:03:05;;;;;;;;;;;21.10;99.90;;;;;;5053134;28;19923;-80
2022/06/24 08:05:32;;;;;;;;;;;21.10;99.90;;;;;;5054542;28;20336;-80
2022/06/24 08:07:59;;;;;;;;;;;21.20;99.90;;;;;;5054807;28;19923;-80
2022/06/24 08:10:26;;;;;;;;;;;21.30;99.90;;;;;;5053018;28;19917;-79
2022/06/24 08:12:52;;;;;;;;;;;21.30;99.90;;;;;;5055215;28;19916;-80
2022/06/24 08:15:19;;;;;;;;;;;21.40;99.90;;;;;;5054403;28;19917;-80
2022/06/24 08:17:48;;;;;;;;;;;21.50;99.90;;;;;;5054180;28;19916;-80
2022/06/24 08:20:15;;;;;;;;;;;21.50;99.90;;;;;;5054435;28;19923;-79
2022/06/24 08:22:41;;;;;;;;;;;21.40;99.90;;;;;;5054828;28;19917;-80
2022/06/24 08:25:08;;;;;;;;;;;21.40;99.90;;;;;;5053828;28;19917;-79
2022/06/24 08:27:51;;;;;;;;;;;21.50;99.90;;;;;;5053344;28;19986;-80
2022/06/24 08:30:18;;;;;;;;;;;21.60;99.90;;;;;;5086779;28;20310;-81
2022/06/24 08:32:45;;;;;;;;;;;21.70;99.90;;;;;;5054388;28;19963;-81
2022/06/24 08:35:11;;;;;;;;;;;21.80;99.90;;;;;;5053199;28;19988;-80
2022/06/24 08:37:54;;;;;;;;;;;21.80;99.90;;;;;;5053805;28;20316;-80
2022/06/24 08:40:21;;;;;;;;;;;21.70;99.90;;;;;;5053920;28;19923;-80
2022/06/24 08:42:52;;;;;;;;;;;21.70;99.90;;;;;;5085777;28;19965;-80
2022/06/24 08:45:19;;;;;;;;;;;21.70;99.90;;;;;;5053924;28;19917;-80
2022/06/24 08:47:47;;;;;;;;;;;21.80;99.90;;;;;;5085839;28;20020;-80
2022/06/24 08:50:14;;;;;;;;;;;21.90;99.90;;;;;;5053896;28;20379;-80
2022/06/24 08:52:53;;;;;;;;;;;22.00;99.90;;;;;;5086725;28;19916;-79
2022/06/24 08:55:23;;;;;;;;;;;22.20;99.90;;;;;;5085798;28;20352;-75
2022/06/24 08:57:50;;;;;;;;;;;22.40;99.90;;;;;;5085592;28;20011;-67
2022/06/24 09:00:18;;;;;;;;;;;22.60;99.90;;;;;;5053439;28;20356;-75
2022/06/24 09:02:46;;;;;;;;;;;22.90;99.90;;;;;;5053403;28;19916;-78
2022/06/24 09:05:13;;;;;;;;;;;23.00;99.90;;;;;;5053148;28;20019;-77
2022/06/24 09:07:40;;;;;;;;;;;23.00;99.90;;;;;;5085474;28;20360;-78
2022/06/24 09:10:11;;;;;;;;;;;22.90;99.90;;;;;;5086085;28;19920;-78
2022/06/24 09:12:45;;;;;;;;;;;22.70;99.90;;;;;;5085120;28;19917;-79
2022/06/24 09:15:13;;;;;;;;;;;22.60;99.90;;;;;;5053486;28;19939;-79
2022/06/24 09:17:40;;;;;;;;;;;22.50;99.90;;;;;;5054543;28;19916;-79
2022/06/24 09:20:07;;;;;;;;;;;22.60;99.90;;;;;;5058113;28;19923;-77
2022/06/24 09:23:07;;;;;;;;;;;22.60;99.90;;;;;;5084077;28;19920;-78
2022/06/24 09:25:44;;;;;;;;;;;22.70;99.90;;;;;;5057103;28;19916;-78
2022/06/24 09:28:12;;;;;;;;;;;22.70;99.90;;;;;;5057491;28;19924;-77
2022/06/24 09:30:39;;;;;;;;;;;22.60;99.90;;;;;;5057090;28;20352;-78
2022/06/24 09:33:06;;;;;;;;;;;22.50;99.90;;;;;;5058521;28;20363;-79
2022/06/24 09:36:00;;;;;;;;;;;22.30;99.90;;;;;;5058191;28;20398;-82
2022/06/24 09:38:27;;;;;;;;;;;22.30;99.90;;;;;;5057097;28;20136;-82
2022/06/24 09:41:01;;;;;;;;;;;22.40;99.90;;;;;;5057336;28;19916;-82
2022/06/24 09:43:30;;;;;;;;;;;22.60;99.90;;;;;;5057319;28;19935;-82
2022/06/24 09:45:57;;;;;;;;;;;22.80;99.90;;;;;;5057519;28;19917;-82
2022/06/24 09:48:27;;;;;;;;;;;22.90;99.90;;;;;;5089154;28;19960;-82
2022/06/24 09:50:58;;;;;;;;;;;23.10;99.90;;;;;;5056961;28;19921;-79
2022/06/24 09:53:25;;;;;;;;;;;23.20;99.90;;;;;;5057540;28;19916;-80
2022/06/24 09:55:53;;;;;;;;;;;23.40;99.90;;;;;;5088744;28;20267;-81
2022/06/24 09:58:20;;;;;;;;;;;23.50;99.90;;;;;;5089847;28;19916;-81
2022/06/24 10:00:47;;;;;;;;;;;23.60;99.90;;;;;;5056918;28;19916;-80
2022/06/24 10:03:14;;;;;;;;;;;23.60;99.90;;;;;;5056859;28;19921;-83
2022/06/24 10:05:45;;;;;;;;;;;23.60;99.90;;;;;;5071830;28;19916;-84
2022/06/24 10:08:16;;;;;;;;;;;23.70;99.90;;;;;;5088363;28;19966;-84
2022/06/24 10:10:52;;;;;;;;;;;23.80;99.90;;;;;;5056545;28;19916;-83
2022/06/24 10:13:26;;;;;;;;;;;24.00;99.90;;;;;;5056545;28;19924;-69
2022/06/24 10:15:53;;;;;;;;;;;24.00;99.90;;;;;;5056520;28;19917;-69
2022/06/24 10:18:22;;;;;;;;;;;23.90;99.90;;;;;;5089259;28;19916;-69
2022/06/24 10:20:50;;;;;;;;;;;23.70;99.90;;;;;;5071683;28;19960;-69
2022/06/24 10:23:36;;;;;;;;;;;23.40;99.90;;;;;;5088485;28;20249;-70
2022/06/24 10:26:10;;;;;;;;;;;23.20;99.90;;;;;;5056534;28;19924;-69
2022/06/24 10:28:55;;;;;;;;;;;23.10;99.90;;;;;;5055914;28;19917;-69
2022/06/24 10:31:22;;;;;;;;;;;23.10;99.90;;;;;;5057096;28;19916;-69
2022/06/24 10:33:49;;;;;;;;;;;23.30;99.90;;;;;;5088638;28;19921;-68
2022/06/24 10:36:28;;;;;;;;;;;23.40;99.90;;;;;;5088485;28;19924;-69
2022/06/24 10:38:55;;;;;;;;;;;23.50;99.90;;;;;;5088069;28;19917;-70
2022/06/24 10:41:22;;;;;;;;;;;23.70;99.90;;;;;;5088138;28;19917;-69
2022/06/24 10:43:49;;;;;;;;;;;23.80;99.90;;;;;;5088102;28;20011;-69
2022/06/24 10:46:16;;;;;;;;;;;24.00;99.90;;;;;;5087624;28;19923;-59
2022/06/24 10:48:43;;;;;;;;;;;23.90;99.90;;;;;;5087958;28;20367;-64
2022/06/24 10:51:11;;;;;;;;;;;23.60;99.90;;;;;;5055463;28;19971;-74
2022/06/24 10:53:57;;;;;;;;;;;23.40;99.90;;;;;;5088007;28;19924;-66
2022/06/24 10:56:38;;;;;;;;;;;23.10;99.90;;;;;;5055805;28;19917;-70
2022/06/24 10:59:05;;;;;;;;;;;22.70;99.90;;;;;;5055728;28;20305;-69
2022/06/24 11:01:32;;;;;;;;;;;22.80;99.90;;;;;;5055212;28;20011;-72
2022/06/24 11:04:00;;;;;;;;;;;23.00;99.90;;;;;;5087605;28;20303;-71
2022/06/24 11:06:27;;;;;;;;;;;23.40;99.90;;;;;;5087904;28;19923;-71
2022/06/24 11:08:54;;;;;;;;;;;23.60;99.90;;;;;;5055224;28;19916;-70
2022/06/24 11:11:30;;;;;;;;;;;23.50;99.90;;;;;;5055892;28;19916;-71
2022/06/24 11:13:57;;;;;;;;;;;23.60;99.90;;;;;;5087251;28;19923;-69
2022/06/24 11:16:26;;;;;;;;;;;23.80;99.90;;;;;;5055260;28;19940;-72
2022/06/24 11:18:52;;;;;;;;;;;24.10;99.90;;;;;;5054863;28;20386;-75
2022/06/24 11:21:20;;;;;;;;;;;24.10;99.70;;;;;;5055868;28;19916;-74
2022/06/24 11:23:47;;;;;;;;;;;24.00;99.90;;;;;;5054934;28;19924;-75
2022/06/24 11:26:14;;;;;;;;;;;23.90;99.90;;;;;;5070706;28;19921;-72
2022/06/24 11:28:41;;;;;;;;;;;23.60;99.90;;;;;;5054908;28;19956;-65
2022/06/24 11:31:17;;;;;;;;;;;23.30;99.90;;;;;;5055298;28;20376;-66
2022/06/24 11:33:48;;;;;;;;;;;23.40;99.90;;;;;;5055059;28;20392;-66
2022/06/24 11:36:15;;;;;;;;;;;23.80;99.90;;;;;;5086742;28;20303;-66
2022/06/24 11:38:56;;;;;;;;;;;24.20;99.90;;;;;;5086671;28;19921;-66
2022/06/24 11:41:24;;;;;;;;;;;24.30;99.10;;;;;;5053831;28;20356;-66
2022/06/24 11:44:11;;;;;;;;;;;24.20;98.30;;;;;;5081065;28;19916;-67
2022/06/24 11:46:38;;;;;;;;;;;24.20;97.70;;;;;;5054408;28;19922;-65
2022/06/24 11:49:12;;;;;;;;;;;24.30;98.80;;;;;;5054703;28;19985;-65
2022/06/24 11:51:39;;;;;;;;;;;24.50;98.40;;;;;;5055231;28;19920;-72
2022/06/24 11:54:07;;;;;;;;;;;24.60;98.30;;;;;;5054299;28;19923;-76
2022/06/24 11:56:34;;;;;;;;;;;24.50;97.70;;;;;;5086285;28;19996;-76
2022/06/24 11:59:01;;;;;;;;;;;24.60;98.30;;;;;;5054208;28;19924;-76
2022/06/24 12:01:29;;;;;;;;;;;24.60;95.50;;;;;;5054459;28;20345;-76
2022/06/24 12:04:02;;;;;;;;;;;24.60;95.50;;;;;;5054418;28;19916;-76
2022/06/24 12:06:29;;;;;;;;;;;24.60;96.40;;;;;;5086681;28;19946;-76
2022/06/24 12:08:56;;;;;;;;;;;24.50;96.80;;;;;;5086439;28;20253;-75
2022/06/24 12:11:22;;;;;;;;;;;24.40;97.60;;;;;;5087658;28;19916;-61
2022/06/24 12:14:03;;;;;;;;;;;24.30;97.00;;;;;;5086030;28;19917;-68
2022/06/24 12:16:48;;;;;;;;;;;24.30;98.20;;;;;;5070209;28;19917;-68
2022/06/24 12:19:15;;;;;;;;;;;24.40;95.00;;;;;;5053788;28;19917;-67
2022/06/24 12:21:42;;;;;;;;;;;24.70;95.20;;;;;;5053854;28;19924;-67
2022/06/24 12:24:18;;;;;;;;;;;24.80;95.40;;;;;;5054115;28;19920;-60
2022/06/24 12:26:45;;;;;;;;;;;24.80;95.20;;;;;;5086914;28;19916;-64
2022/06/24 12:29:12;;;;;;;;;;;24.90;97.00;;;;;;5054586;28;19944;-64
2022/06/24 12:31:48;;;;;;;;;;;25.10;96.90;;;;;;5054505;28;19924;-65
2022/06/24 12:34:23;;;;;;;;;;;25.40;94.80;;;;;;5086543;28;19916;-64
2022/06/24 12:36:54;;;;;;;;;;;25.20;93.00;;;;;;5054515;28;20344;-65
2022/06/24 12:39:26;;;;;;;;;;;25.10;93.10;;;;;;5054687;28;19920;-65
2022/06/24 12:41:53;;;;;;;;;;;24.90;93.30;;;;;;5053616;28;19971;-65
2022/06/24 12:44:19;;;;;;;;;;;24.70;95.10;;;;;;5052653;28;20264;-64
2022/06/24 12:52:28;;;;;;;;;;;23.90;95.10;;;;;;5053183;28;20382;-64
2022/06/24 12:54:54;;;;;;;;;;;23.50;95.00;;;;;;5053386;28;19996;-64
2022/06/24 12:57:23;;;;;;;;;;;23.20;96.60;;;;;;5053349;28;19916;-64
2022/06/24 12:59:50;;;;;;;;;;;23.00;97.90;;;;;;5053361;28;19917;-64
2022/06/24 13:02:17;;;;;;;;;;;22.90;98.90;;;;;;5053269;28;19988;-65
2022/06/24 13:04:44;;;;;;;;;;;22.80;99.10;;;;;;5053225;28;19917;-65
2022/06/24 13:07:10;;;;;;;;;;;22.70;99.90;;;;;;5053776;28;19917;-65
2022/06/24 13:09:37;;;;;;;;;;;22.60;99.90;;;;;;5053553;28;19923;-65
2022/06/24 13:12:04;;;;;;;;;;;22.50;99.90;;;;;;5053246;28;20352;-65
2022/06/24 13:14:31;;;;;;;;;;;22.60;99.90;;;;;;5054074;28;19917;-64
2022/06/24 13:16:58;;;;;;;;;;;22.70;99.90;;;;;;5068498;28;20015;-65
2022/06/24 13:19:27;;;;;;;;;;;23.00;99.90;;;;;;5053496;28;20010;-64
2022/06/24 13:21:55;;;;;;;;;;;23.30;99.90;;;;;;5053535;28;19917;-65
2022/06/24 13:24:21;;;;;;;;;;;23.50;99.90;;;;;;5053400;28;19967;-64
2022/06/24 13:26:48;;;;;;;;;;;23.50;99.90;;;;;;5053054;28;19923;-64
2022/06/24 13:29:15;;;;;;;;;;;23.40;99.90;;;;;;5054286;28;19956;-64
2022/06/24 13:31:42;;;;;;;;;;;23.30;99.90;;;;;;5053424;28;19940;-64
2022/06/24 13:34:09;;;;;;;;;;;23.30;99.90;;;;;;5053003;28;20020;-65
2022/06/24 13:36:35;;;;;;;;;;;23.50;99.90;;;;;;5053397;28;20225;-64
2022/06/24 13:39:03;;;;;;;;;;;23.70;99.90;;;;;;5053356;28;19917;-64
2022/06/24 13:41:30;;;;;;;;;;;23.80;99.90;;;;;;5053235;28;19943;-64
2022/06/24 13:43:57;;;;;;;;;;;23.90;99.90;;;;;;5053251;28;19923;-65
2022/06/24 13:46:24;;;;;;;;;;;24.00;99.90;;;;;;5052811;28;19916;-64
2022/06/24 13:48:52;;;;;;;;;;;24.00;99.90;;;;;;5053144;28;19916;-65
2022/06/24 13:51:19;;;;;;;;;;;23.90;99.90;;;;;;5053170;28;19928;-65
2022/06/24 13:53:46;;;;;;;;;;;23.60;99.90;;;;;;5052878;28;19917;-65
2022/06/24 13:56:13;;;;;;;;;;;23.50;99.90;;;;;;5053015;28;19920;-65
2022/06/24 13:58:40;;;;;;;;;;;23.20;99.90;;;;;;5053123;28;19917;-74
2022/06/24 14:01:07;;;;;;;;;;;23.00;99.90;;;;;;5086055;28;19917;-74
2022/06/24 14:03:34;;;;;;;;;;;22.70;99.90;;;;;;5052933;28;19916;-71
2022/06/24 14:06:00;;;;;;;;;;;22.40;99.90;;;;;;5071597;28;19960;-70
2022/06/24 14:08:27;;;;;;;;;;;22.10;99.90;;;;;;5056626;28;20360;-74
2022/06/24 14:10:54;;;;;;;;;;;22.00;99.90;;;;;;5088457;28;19971;-71
2022/06/24 14:13:21;;;;;;;;;;;21.80;99.90;;;;;;5057331;28;19923;-71
2022/06/24 14:15:48;;;;;;;;;;;21.90;99.90;;;;;;5088413;28;20325;-72
2022/06/24 14:18:14;;;;;;;;;;;22.10;99.90;;;;;;5089406;28;19916;-73
2022/06/24 14:20:41;;;;;;;;;;;22.40;99.90;;;;;;5055762;28;19916;-72
2022/06/24 14:25:54;;;;;;;;;;;23.00;99.90;;;;;;5083603;28;19917;-72
2022/06/24 14:28:21;;;;;;;;;;;23.30;99.90;;;;;;5056055;28;19916;-74
2022/06/24 14:30:48;;;;;;;;;;;23.20;99.90;;;;;;5056245;28;19916;-73
2022/06/24 14:33:15;;;;;;;;;;;22.90;99.90;;;;;;5056727;28;20019;-71
2022/06/24 14:35:42;;;;;;;;;;;22.80;99.90;;;;;;5056231;28;19916;-76
2022/06/24 14:40:56;;;;;;;;;;;22.70;99.90;;;;;;5084195;28;19916;-80